createdAt,value
2022-07-25T00:00:00.000Z,25.06
2022-07-25T00:15:00.000Z,24.91
2022-07-25T00:30:00.000Z,25.36
2022-07-25T00:45:00.000Z,25.2
2022-07-25T01:00:00.000Z,24.93
2022-07-25T01:15:00.000Z,24.93
2022-07-25T01:30:00.000Z,25.53
2022-07-25T01:45:00.000Z,24.33
2022-07-25T02:00:00.000Z,24.95
2022-07-25T02:15:00.000Z,25.17
2022-07-25T02:30:00.000Z,25.14
2022-07-25T02:45:00.000Z,25.9
2022-07-25T03:00:00.000Z,25.95
2022-07-25T03:15:00.000Z,26.33
2022-07-25T03:30:00.000Z,27.18
2022-07-25T03:45:00.000Z,27.42
2022-07-25T04:00:00.000Z,25.36
2022-07-25T04:15:00.000Z,26.02
2022-07-25T04:30:00.000Z,26.48
2022-07-25T04:45:00.000Z,25.27
2022-07-25T05:00:00.000Z,24.08
2022-07-25T05:15:00.000Z,22.69
2022-07-25T05:30:00.000Z,22.13
2022-07-25T05:45:00.000Z,20.95
2022-07-25T06:00:00.000Z,20.44
2022-07-25T06:15:00.000Z,19.72
2022-07-25T06:30:00.000Z,20.41
2022-07-25T06:45:00.000Z,18.85
2022-07-25T07:00:00.000Z,16.79
2022-07-25T07:15:00.000Z,16.13
2022-07-25T07:30:00.000Z,16.12
2022-07-25T07:45:00.000Z,16.25
2022-07-25T08:00:00.000Z,15.28
2022-07-25T08:15:00.000Z,15.19
2022-07-25T08:30:00.000Z,14.86
2022-07-25T08:45:00.000Z,14.35
2022-07-25T09:00:00.000Z,15.42
2022-07-25T09:15:00.000Z,15.72
2022-07-25T09:30:00.000Z,17.13
2022-07-25T09:45:00.000Z,17.54
2022-07-25T10:00:00.000Z,17.06
2022-07-25T10:15:00.000Z,17.14
2022-07-25T10:30:00.000Z,17.04
2022-07-25T10:45:00.000Z,16.92
2022-07-25T11:00:00.000Z,16.68
2022-07-25T11:15:00.000Z,16.39
2022-07-25T11:30:00.000Z,15.73
2022-07-25T11:45:00.000Z,14.95
2022-07-25T12:00:00.000Z,14.09
2022-07-25T12:15:00.000Z,12
2022-07-25T12:30:00.000Z,12.55
2022-07-25T12:45:00.000Z,12.45
2022-07-25T13:00:00.000Z,12.65
2022-07-25T13:15:00.000Z,12.01
2022-07-25T13:30:00.000Z,12.75
2022-07-25T13:45:00.000Z,12.12
2022-07-25T14:00:00.000Z,12.22
2022-07-25T14:15:00.000Z,11.75
2022-07-25T14:30:00.000Z,12.58
2022-07-25T14:45:00.000Z,12.58
2022-07-25T15:00:00.000Z,12.22
2022-07-25T15:15:00.000Z,11.96
2022-07-25T15:30:00.000Z,12.94
2022-07-25T15:45:00.000Z,12.34
2022-07-25T16:00:00.000Z,11.44
2022-07-25T16:15:00.000Z,10.59
2022-07-25T16:30:00.000Z,12.02
2022-07-25T16:45:00.000Z,12.66
2022-07-25T17:00:00.000Z,10.51
2022-07-25T17:15:00.000Z,11.32
2022-07-25T17:30:00.000Z,12.71
2022-07-25T17:45:00.000Z,12.53
2022-07-25T18:00:00.000Z,14.29
2022-07-25T18:15:00.000Z,15.87
2022-07-25T18:30:00.000Z,17.51
2022-07-25T18:45:00.000Z,25.31
2022-07-25T19:00:00.000Z,17.11
2022-07-25T19:15:00.000Z,20.82
2022-07-25T19:30:00.000Z,18.71
2022-07-25T19:45:00.000Z,17.46
2022-07-25T20:00:00.000Z,16.52
2022-07-25T20:15:00.000Z,20.96
2022-07-25T20:30:00.000Z,15.14
2022-07-25T20:45:00.000Z,15.8
2022-07-25T21:00:00.000Z,15.72
2022-07-25T21:15:00.000Z,15.18
2022-07-25T21:30:00.000Z,14.69
2022-07-25T21:45:00.000Z,13.82
2022-07-25T22:00:00.000Z,13.33
2022-07-25T22:15:00.000Z,15.09
2022-07-25T22:30:00.000Z,15.79
2022-07-25T22:45:00.000Z,14.65
2022-07-25T23:00:00.000Z,14.94
2022-07-25T23:15:00.000Z,15.33
2022-07-25T23:30:00.000Z,15.42
2022-07-25T23:45:00.000Z,16.2
